Valle Di Nervion — IBPC — position and weather

sailwx.info

Track history (hours):
 
Tides and Currents Weather Stations Pressure Air Temp Water Temp Dewpoint Dewpoint Depression Visibility Wind Speed Wind Dir Waves Ship Positions

Valle Di Nervion

Last reported at 2014-Aug-01 19:33 UTC. Time now 2014-Aug-02 04:41 UTC.
Position N 44°03' E 039°06'.

Length 176 m; draft 5.5 m.

Type: Ship (hazmat cat D). MMSI: 247109500.

Date/timePositionNaut miles runAvg speedWind from/ knotsBaromVisibWave heightAir tempDewpointWater temp
2014-Aug-01 19:33N 44°03' E 039°06'0 0.0
2014-Aug-01 17:27N 44°03' E 039°06'0 0.2
2014-Aug-01 16:33N 44°03' E 039°06'0 0.0
2014-Aug-01 12:21N 44°02' E 039°06'0 0.0
2014-Aug-01 11:33N 44°02' E 039°06'59 1.3
2014-Jul-30 13:11N 44°33' E 037°56'0 0.7
2014-Jul-30 12:29N 44°34' E 037°56'6 5.9
2014-Jul-30 11:26N 44°39' E 037°51'  
2014-Jul-28 06:23N 43°12' E 034°15'269 7.1
2014-Jul-26 16:33N 40°42' E 029°15'5 4.2
2014-Jul-26 15:27N 40°42' E 029°21'0 0.1
2014-Jul-26 14:15N 40°42' E 029°21'0 0.1
2014-Jul-26 12:11N 40°42' E 029°21'4 5.5
2014-Jul-26 11:31N 40°44' E 029°25'2 0.1
2014-Jul-25 17:33N 40°43' E 029°28'0 0.0
2014-Jul-25 16:21N 40°43' E 029°28'0 0.0
2014-Jul-24 11:14N 40°43' E 029°28'0 0.0
2014-Jul-24 10:32N 40°43' E 029°28'0 0.0
2014-Jul-24 09:28N 40°43' E 029°28'0 0.0
2014-Jul-24 08:33N 40°43' E 029°28'0 0.0
2014-Jul-24 07:17N 40°43' E 029°28'0 0.0
2014-Jul-24 06:20N 40°43' E 029°28'0 0.0
2014-Jul-23 22:15N 40°43' E 029°28'1 1.3
2014-Jul-23 21:25N 40°44' E 029°28'  
Track history (hours):
 
Tides and Currents Weather Stations Pressure Air Temp Water Temp Dewpoint Dewpoint Depression Visibility Wind Speed Wind Dir Waves Ship Positions

Valle Di Nervion

Last reported at 2014-Aug-01 19:33 UTC. Time now 2014-Aug-02 04:41 UTC.
Position N 44°03' E 039°06'.

Length 176 m; draft 5.5 m.

Type: Ship (hazmat cat D). MMSI: 247109500.

Date/timePositionNaut miles runAvg speedWind from/ knotsBaromVisibWave heightAir tempDewpointWater temp
2014-Aug-01 19:33N 44°03' E 039°06'0 0.0
2014-Aug-01 17:27N 44°03' E 039°06'0 0.2
2014-Aug-01 16:33N 44°03' E 039°06'0 0.0
2014-Aug-01 12:21N 44°02' E 039°06'0 0.0
2014-Aug-01 11:33N 44°02' E 039°06'59 1.3
2014-Jul-30 13:11N 44°33' E 037°56'0 0.7
2014-Jul-30 12:29N 44°34' E 037°56'6 5.9
2014-Jul-30 11:26N 44°39' E 037°51'  
2014-Jul-28 06:23N 43°12' E 034°15'269 7.1
2014-Jul-26 16:33N 40°42' E 029°15'5 4.2
2014-Jul-26 15:27N 40°42' E 029°21'0 0.1
2014-Jul-26 14:15N 40°42' E 029°21'0 0.1
2014-Jul-26 12:11N 40°42' E 029°21'4 5.5
2014-Jul-26 11:31N 40°44' E 029°25'2 0.1
2014-Jul-25 17:33N 40°43' E 029°28'0 0.0
2014-Jul-25 16:21N 40°43' E 029°28'0 0.0
2014-Jul-24 11:14N 40°43' E 029°28'0 0.0
2014-Jul-24 10:32N 40°43' E 029°28'0 0.0
2014-Jul-24 09:28N 40°43' E 029°28'0 0.0
2014-Jul-24 08:33N 40°43' E 029°28'0 0.0
2014-Jul-24 07:17N 40°43' E 029°28'0 0.0
2014-Jul-24 06:20N 40°43' E 029°28'0 0.0
2014-Jul-23 22:15N 40°43' E 029°28'1 1.3
2014-Jul-23 21:25N 40°44' E 029°28'  

Dump ship's entire track history